createdAt,value
2018-02-07T00:02:06.964Z,17.30
2018-02-07T00:04:32.902Z,14.67
2018-02-07T00:06:58.895Z,17.00
2018-02-07T00:09:24.844Z,18.33
2018-02-07T00:11:50.819Z,16.20
2018-02-07T00:14:16.765Z,15.90
2018-02-07T00:16:43.460Z,15.07
2018-02-07T00:19:09.444Z,16.33
2018-02-07T00:21:35.411Z,17.13
2018-02-07T00:24:01.363Z,16.90
2018-02-07T00:26:27.356Z,15.50
2018-02-07T00:28:54.041Z,15.50
2018-02-07T00:31:20.035Z,17.07
2018-02-07T00:33:46.018Z,19.00
2018-02-07T00:36:11.989Z,16.73
2018-02-07T00:38:37.940Z,17.23
2018-02-07T00:41:03.907Z,17.20
2018-02-07T00:43:29.912Z,17.83
2018-02-07T00:45:55.842Z,17.20
2018-02-07T00:48:21.790Z,16.20
2018-02-07T00:50:47.764Z,17.20
2018-02-07T00:53:13.712Z,17.20
2018-02-07T00:55:39.695Z,19.10
2018-02-07T00:58:05.626Z,16.77
2018-02-07T01:00:31.567Z,16.00
2018-02-07T01:02:57.550Z,16.17
2018-02-07T01:05:23.484Z,15.40
2018-02-07T01:07:49.453Z,16.47
2018-02-07T01:10:15.445Z,16.00
2018-02-07T01:12:41.431Z,18.00
2018-02-07T01:15:07.371Z,16.67
2018-02-07T01:17:33.335Z,16.23
2018-02-07T01:20:00.053Z,16.97
2018-02-07T01:22:26.079Z,17.23
2018-02-07T01:24:52.020Z,14.90
2018-02-07T01:27:17.994Z,17.63
2018-02-07T01:29:44.684Z,14.70
2018-02-07T01:32:10.639Z,16.07
2018-02-07T01:34:36.598Z,16.40
2018-02-07T01:37:02.537Z,16.40
2018-02-07T01:39:29.252Z,18.07
2018-02-07T01:41:55.183Z,16.07
2018-02-07T01:44:21.160Z,17.77
2018-02-07T01:46:47.835Z,17.23
2018-02-07T01:49:13.770Z,18.07
2018-02-07T01:51:39.744Z,16.53
2018-02-07T01:54:05.721Z,16.70
2018-02-07T01:56:32.395Z,17.77
2018-02-07T01:58:58.378Z,17.33
2018-02-07T02:01:24.315Z,17.70
2018-02-07T02:03:50.246Z,18.07
2018-02-07T02:06:16.227Z,15.87
2018-02-07T02:08:42.953Z,17.57
2018-02-07T02:11:08.901Z,17.50
2018-02-07T02:13:35.612Z,16.80
2018-02-07T02:16:01.543Z,17.60
2018-02-07T02:18:27.536Z,15.20
2018-02-07T02:20:54.248Z,15.73
2018-02-07T02:23:20.215Z,15.87
2018-02-07T02:25:46.916Z,16.50
2018-02-07T02:28:13.044Z,15.13
2018-02-07T02:30:38.978Z,16.20
2018-02-07T02:33:04.917Z,18.90
2018-02-07T02:35:30.875Z,14.97
2018-02-07T02:37:56.820Z,16.77
2018-02-07T02:40:22.788Z,18.03
2018-02-07T02:42:49.459Z,15.90
2018-02-07T02:45:15.410Z,18.67
2018-02-07T02:47:41.375Z,18.07
2018-02-07T02:50:07.347Z,16.40
2018-02-07T02:52:34.481Z,17.47
2018-02-07T02:55:00.467Z,16.07
2018-02-07T02:57:26.417Z,16.30
2018-02-07T02:59:52.368Z,14.50
2018-02-07T03:02:18.341Z,16.90
2018-02-07T03:04:44.292Z,16.07
2018-02-07T03:07:11.068Z,16.63
2018-02-07T03:09:37.029Z,17.10
2018-02-07T03:12:03.004Z,17.07
2018-02-07T03:14:28.956Z,18.20
2018-02-07T03:16:55.672Z,18.10
2018-02-07T03:19:23.200Z,17.63
2018-02-07T03:21:49.175Z,17.17
2018-02-07T03:24:15.157Z,15.80
2018-02-07T03:26:41.172Z,18.97
2018-02-07T03:29:07.912Z,16.73
2018-02-07T03:31:33.862Z,18.20
2018-02-07T03:34:00.596Z,16.17
2018-02-07T03:36:26.535Z,17.97
2018-02-07T03:38:52.471Z,17.37
2018-02-07T03:41:18.445Z,17.60
2018-02-07T03:43:44.436Z,15.80
2018-02-07T03:46:11.138Z,17.17
2018-02-07T03:48:37.108Z,19.00
2018-02-07T03:51:03.057Z,17.63
2018-02-07T03:53:29.052Z,17.33
2018-02-07T03:55:54.996Z,17.90
2018-02-07T03:58:20.938Z,15.90
2018-02-07T04:00:46.904Z,16.10
2018-02-07T04:03:12.863Z,18.47
2018-02-07T04:05:39.601Z,17.40
2018-02-07T04:08:05.572Z,17.23
2018-02-07T04:10:31.528Z,18.20
2018-02-07T04:12:57.500Z,16.90
2018-02-07T04:15:23.520Z,18.90
2018-02-07T04:17:49.472Z,16.30
2018-02-07T04:20:15.451Z,20.10
2018-02-07T04:22:41.506Z,18.27
2018-02-07T04:25:07.497Z,17.70
2018-02-07T04:27:33.469Z,18.30
2018-02-07T04:29:59.458Z,19.10
2018-02-07T04:32:25.405Z,16.70
2018-02-07T04:34:51.349Z,16.73
2018-02-07T04:37:18.085Z,16.70
2018-02-07T04:39:44.065Z,18.00
2018-02-07T04:42:10.004Z,20.63
2018-02-07T04:44:35.978Z,19.00
2018-02-07T04:47:01.934Z,18.60
2018-02-07T04:49:28.665Z,19.37
2018-02-07T04:51:54.682Z,18.80
2018-02-07T04:54:20.625Z,19.97
2018-02-07T04:56:46.606Z,19.37
2018-02-07T04:59:13.409Z,18.77
2018-02-07T05:01:39.384Z,20.17
2018-02-07T05:04:05.333Z,20.63
2018-02-07T05:06:32.084Z,18.37
2018-02-07T05:08:58.760Z,19.47
2018-02-07T05:11:24.709Z,21.00
2018-02-07T05:13:50.772Z,21.10
2018-02-07T05:16:16.718Z,21.03
2018-02-07T05:18:42.690Z,19.77
2018-02-07T05:21:08.674Z,21.23
2018-02-07T05:23:34.670Z,22.63
2018-02-07T05:26:00.621Z,20.80
2018-02-07T05:28:26.607Z,20.20
2018-02-07T05:30:52.552Z,20.20
2018-02-07T05:33:19.272Z,20.20
2018-02-07T05:35:45.224Z,21.17
2018-02-07T05:38:11.204Z,19.17
2018-02-07T05:40:37.141Z,21.57
2018-02-07T05:43:03.094Z,21.00
2018-02-07T05:45:29.065Z,21.20
2018-02-07T05:47:55.036Z,23.10
2018-02-07T05:50:21.067Z,23.87
2018-02-07T05:52:54.641Z,28.87
2018-02-07T05:55:21.378Z,26.57
2018-02-07T05:57:47.330Z,26.37
2018-02-07T06:00:13.333Z,24.70
2018-02-07T06:02:39.360Z,25.10
2018-02-07T06:05:05.334Z,24.33
2018-02-07T06:07:31.316Z,22.33
2018-02-07T06:09:58.088Z,21.70
2018-02-07T06:12:24.024Z,22.50
2018-02-07T06:14:50.000Z,21.10
2018-02-07T06:17:16.006Z,23.30
2018-02-07T06:19:41.956Z,23.00
2018-02-07T06:22:07.909Z,23.40
2018-02-07T06:24:33.901Z,21.33
2018-02-07T06:26:59.852Z,23.17
2018-02-07T06:29:25.833Z,23.33
2018-02-07T06:31:52.513Z,22.87
2018-02-07T06:34:18.480Z,21.73
2018-02-07T06:36:44.469Z,27.07
2018-02-07T06:39:10.459Z,32.40
2018-02-07T06:41:36.399Z,30.40
2018-02-07T06:44:02.344Z,27.90
2018-02-07T06:46:28.326Z,32.37
2018-02-07T06:48:54.288Z,26.40
2018-02-07T06:51:20.298Z,23.20
2018-02-07T06:53:46.264Z,23.00
2018-02-07T06:56:12.250Z,24.53
2018-02-07T06:58:38.965Z,23.67
2018-02-07T07:01:04.953Z,23.93
2018-02-07T07:03:30.920Z,23.50
2018-02-07T07:05:56.861Z,24.93
2018-02-07T07:08:22.861Z,25.63
2018-02-07T07:10:48.833Z,24.70
2018-02-07T07:13:14.844Z,26.07
2018-02-07T07:15:40.800Z,25.60
2018-02-07T07:18:06.841Z,26.47
2018-02-07T07:20:32.805Z,26.40
2018-02-07T07:22:58.788Z,27.73
2018-02-07T07:25:24.760Z,25.73
2018-02-07T07:27:50.740Z,27.87
2018-02-07T07:30:17.434Z,25.90
2018-02-07T07:32:43.410Z,25.40
2018-02-07T07:35:09.414Z,27.90
2018-02-07T07:37:35.388Z,26.77
2018-02-07T07:40:02.109Z,36.40
2018-02-07T07:42:28.093Z,35.53
2018-02-07T07:44:54.776Z,28.73
2018-02-07T07:47:20.721Z,32.63
2018-02-07T07:49:46.716Z,30.00
2018-02-07T07:52:12.675Z,34.90
2018-02-07T07:54:38.661Z,31.90
2018-02-07T07:57:04.604Z,30.70
2018-02-07T07:59:30.576Z,31.23
2018-02-07T08:01:56.520Z,33.37
2018-02-07T08:04:22.492Z,32.87
2018-02-07T08:06:48.467Z,32.50
2018-02-07T08:09:14.457Z,29.93
2018-02-07T08:11:40.448Z,31.03
2018-02-07T08:14:06.390Z,29.63
2018-02-07T08:16:32.392Z,30.50
2018-02-07T08:18:58.338Z,28.37
2018-02-07T08:21:25.030Z,33.27
2018-02-07T08:23:51.052Z,27.77
2018-02-07T08:26:16.988Z,26.47
2018-02-07T08:28:42.933Z,28.40
2018-02-07T08:31:08.912Z,29.77
2018-02-07T08:33:34.913Z,27.27
2018-02-07T08:36:00.884Z,30.80
2018-02-07T08:38:26.856Z,30.10
2018-02-07T08:40:52.804Z,30.60
2018-02-07T08:43:18.786Z,28.20
2018-02-07T08:45:44.756Z,27.93
2018-02-07T08:48:11.432Z,28.60
2018-02-07T08:50:37.401Z,31.00
2018-02-07T08:53:03.352Z,30.20
2018-02-07T08:55:30.157Z,31.50
2018-02-07T08:57:56.876Z,31.33
2018-02-07T09:00:23.560Z,30.43
2018-02-07T09:02:49.537Z,31.10
2018-02-07T09:05:15.558Z,30.30
2018-02-07T09:07:41.504Z,28.87
2018-02-07T09:10:07.444Z,30.07
2018-02-07T09:12:33.404Z,31.67
2018-02-07T09:15:00.125Z,28.70
2018-02-07T09:17:26.112Z,29.40
2018-02-07T09:19:52.053Z,28.50
2018-02-07T09:22:18.006Z,28.20
2018-02-07T09:24:44.033Z,28.67
2018-02-07T09:27:10.042Z,28.60
2018-02-07T09:29:36.785Z,29.13
2018-02-07T09:32:02.724Z,28.60
2018-02-07T09:34:29.446Z,28.20
2018-02-07T09:36:55.420Z,27.97
2018-02-07T09:39:22.142Z,27.70
2018-02-07T09:41:48.137Z,27.77
2018-02-07T09:44:14.845Z,27.57
2018-02-07T09:46:40.868Z,26.80
2018-02-07T09:49:06.816Z,29.17
2018-02-07T09:51:32.748Z,29.70
2018-02-07T09:53:58.732Z,30.47
2018-02-07T09:56:24.710Z,30.00
2018-02-07T09:58:50.657Z,27.80
2018-02-07T10:01:16.640Z,28.87
2018-02-07T10:03:42.589Z,29.00
2018-02-07T10:06:08.557Z,31.83
2018-02-07T10:08:34.492Z,30.27
2018-02-07T10:11:00.495Z,30.10
2018-02-07T10:13:26.434Z,30.03
2018-02-07T10:15:52.373Z,27.40
2018-02-07T10:18:18.349Z,29.50
2018-02-07T10:20:44.329Z,33.47
2018-02-07T10:23:10.264Z,29.17
2018-02-07T10:25:36.256Z,29.37
2018-02-07T10:28:02.946Z,31.10
2018-02-07T10:30:28.951Z,29.33
2018-02-07T10:32:55.659Z,29.37
2018-02-07T10:35:21.604Z,31.60
2018-02-07T10:37:47.586Z,29.20
2018-02-07T10:40:14.306Z,32.00
2018-02-07T10:42:40.253Z,30.83
2018-02-07T10:45:06.973Z,30.87
2018-02-07T10:47:32.940Z,30.07
2018-02-07T10:49:58.884Z,30.43
2018-02-07T10:52:24.848Z,32.50
2018-02-07T10:54:50.821Z,35.73
2018-02-07T10:57:16.792Z,32.63
2018-02-07T10:59:43.530Z,29.57
2018-02-07T11:02:09.468Z,32.93
2018-02-07T11:04:35.463Z,28.97
2018-02-07T11:07:01.407Z,49.37
2018-02-07T11:09:27.361Z,36.23
2018-02-07T11:11:53.317Z,35.73
2018-02-07T11:14:19.256Z,51.50
2018-02-07T11:16:45.985Z,44.20
2018-02-07T11:19:11.935Z,28.23
2018-02-07T11:21:37.904Z,28.60
2018-02-07T11:24:03.842Z,30.40
2018-02-07T11:26:29.869Z,31.00
2018-02-07T11:28:56.596Z,31.47
2018-02-07T11:31:22.541Z,28.93
2018-02-07T11:33:49.233Z,28.80
2018-02-07T11:36:15.220Z,30.30
2018-02-07T11:38:41.160Z,29.13
2018-02-07T11:41:07.111Z,34.07
2018-02-07T11:43:33.780Z,42.10
2018-02-07T11:45:59.799Z,29.90
2018-02-07T11:48:26.485Z,30.40
2018-02-07T11:50:52.424Z,27.00
2018-02-07T11:53:18.392Z,26.03
2018-02-07T11:55:44.399Z,27.10
2018-02-07T11:58:10.364Z,27.50
2018-02-07T12:00:37.784Z,28.93
2018-02-07T12:03:03.748Z,27.60
2018-02-07T12:05:29.738Z,28.00
2018-02-07T12:07:56.460Z,27.03
2018-02-07T12:10:22.409Z,29.33
2018-02-07T12:12:49.092Z,26.80
2018-02-07T12:15:15.082Z,27.00
2018-02-07T12:17:41.037Z,28.97
2018-02-07T12:20:07.731Z,27.30
2018-02-07T12:22:33.677Z,28.53
2018-02-07T12:24:59.665Z,27.07
2018-02-07T12:27:26.441Z,29.00
2018-02-07T12:29:52.389Z,27.50
2018-02-07T12:32:18.339Z,27.07
2018-02-07T12:34:44.308Z,27.57
2018-02-07T12:37:11.748Z,29.17
2018-02-07T12:39:37.726Z,30.80
2018-02-07T12:42:04.560Z,28.17
2018-02-07T12:44:30.500Z,26.37
2018-02-07T12:46:57.298Z,27.20
2018-02-07T12:49:23.251Z,27.33
2018-02-07T12:51:49.197Z,26.37
2018-02-07T12:54:15.193Z,26.00
2018-02-07T12:56:43.041Z,27.10
2018-02-07T12:59:09.000Z,27.50
2018-02-07T13:01:35.712Z,27.10
2018-02-07T13:04:01.653Z,29.10
2018-02-07T13:06:27.664Z,26.83
2018-02-07T13:08:53.676Z,28.07
2018-02-07T13:11:19.616Z,29.90
2018-02-07T13:13:45.592Z,28.30
2018-02-07T13:16:11.593Z,27.60
2018-02-07T13:18:37.531Z,27.87
2018-02-07T13:21:03.504Z,27.57
2018-02-07T13:23:29.496Z,26.30
2018-02-07T13:25:55.457Z,28.00
2018-02-07T13:28:21.436Z,26.20
2018-02-07T13:30:48.165Z,26.33
2018-02-07T13:33:14.148Z,27.23
2018-02-07T13:35:40.093Z,26.43
2018-02-07T13:38:06.048Z,26.37
2018-02-07T13:40:32.029Z,26.70
2018-02-07T13:42:58.722Z,25.93
2018-02-07T13:45:24.680Z,26.67
2018-02-07T13:47:50.681Z,27.40
2018-02-07T13:50:16.621Z,25.40
2018-02-07T13:52:42.565Z,27.80
2018-02-07T13:55:08.554Z,27.93
2018-02-07T13:57:35.280Z,25.27
2018-02-07T14:00:01.256Z,25.77
2018-02-07T14:02:27.941Z,26.90
2018-02-07T14:04:54.061Z,26.90
2018-02-07T14:07:20.017Z,26.83
2018-02-07T14:09:45.972Z,26.50
2018-02-07T14:12:11.945Z,29.63
2018-02-07T14:14:38.652Z,28.10
2018-02-07T14:17:04.651Z,27.23
2018-02-07T14:19:30.629Z,29.03
2018-02-07T14:21:56.580Z,27.23
2018-02-07T14:24:22.583Z,28.50
2018-02-07T14:26:48.524Z,30.00
2018-02-07T14:29:14.504Z,28.03
2018-02-07T14:31:41.219Z,30.30
2018-02-07T14:34:07.211Z,28.67
2018-02-07T14:36:33.921Z,28.53
2018-02-07T14:38:59.909Z,29.23
2018-02-07T14:41:25.876Z,31.27
2018-02-07T14:43:51.830Z,31.07
2018-02-07T14:46:17.801Z,29.53
2018-02-07T14:48:44.522Z,30.83
2018-02-07T14:51:10.492Z,30.27
2018-02-07T14:53:37.204Z,28.93
2018-02-07T14:56:03.198Z,32.10
2018-02-07T14:58:29.159Z,31.63
2018-02-07T15:00:55.176Z,31.33
2018-02-07T15:03:21.160Z,29.23
2018-02-07T15:05:47.884Z,32.77
2018-02-07T15:08:13.834Z,30.73
2018-02-07T15:10:39.845Z,30.07
2018-02-07T15:13:05.854Z,31.30
2018-02-07T15:15:31.846Z,29.77
2018-02-07T15:17:57.865Z,30.27
2018-02-07T15:20:23.816Z,33.90
2018-02-07T15:22:49.792Z,30.30
2018-02-07T15:25:16.492Z,31.40
2018-02-07T15:27:42.465Z,30.80
2018-02-07T15:30:09.171Z,33.10
2018-02-07T15:32:35.197Z,33.00
2018-02-07T15:35:01.189Z,34.93
2018-02-07T15:37:27.145Z,33.67
2018-02-07T15:39:53.861Z,32.80
2018-02-07T15:42:19.857Z,37.93
2018-02-07T15:44:45.836Z,37.20
2018-02-07T15:47:11.816Z,34.33
2018-02-07T15:49:37.777Z,33.83
2018-02-07T15:52:03.760Z,32.77
2018-02-07T15:54:30.447Z,33.10
2018-02-07T15:56:56.380Z,33.10
2018-02-07T15:59:22.374Z,32.97
2018-02-07T16:01:48.324Z,34.37
2018-02-07T16:04:15.036Z,32.87
2018-02-07T16:06:40.980Z,34.20
2018-02-07T16:09:07.004Z,34.20
2018-02-07T16:11:32.960Z,32.70
2018-02-07T16:13:58.916Z,33.80
2018-02-07T16:16:24.916Z,33.37
2018-02-07T16:18:50.880Z,31.60
2018-02-07T16:21:16.836Z,30.57
2018-02-07T16:23:43.544Z,32.30
2018-02-07T16:26:09.553Z,34.80
2018-02-07T16:28:35.542Z,33.83
2018-02-07T16:31:01.520Z,33.83
2018-02-07T16:33:27.456Z,34.97
2018-02-07T16:35:53.452Z,35.00
2018-02-07T16:38:20.971Z,35.73
2018-02-07T16:40:46.955Z,35.30
2018-02-07T16:43:12.943Z,36.17
2018-02-07T16:45:38.939Z,36.57
2018-02-07T16:48:04.980Z,37.40
2018-02-07T16:50:31.711Z,37.00
2018-02-07T16:52:57.908Z,39.10
2018-02-07T16:55:23.941Z,35.90
2018-02-07T16:57:49.958Z,43.30
2018-02-07T17:00:15.941Z,38.20
2018-02-07T17:02:41.924Z,38.60
2018-02-07T17:05:08.685Z,40.30
2018-02-07T17:07:35.048Z,38.67
2018-02-07T17:10:01.100Z,41.37
2018-02-07T17:12:27.097Z,38.60
2018-02-07T17:14:53.870Z,38.03
2018-02-07T17:17:19.979Z,41.70
2018-02-07T17:19:46.736Z,37.60
2018-02-07T17:22:12.677Z,45.50
2018-02-07T17:24:39.426Z,41.87
2018-02-07T17:27:05.416Z,40.13
2018-02-07T17:29:31.380Z,40.43
2018-02-07T17:31:57.352Z,42.50
2018-02-07T17:34:24.073Z,42.53
2018-02-07T17:36:50.081Z,40.47
2018-02-07T17:39:16.070Z,42.10
2018-02-07T17:41:42.761Z,39.10
2018-02-07T17:44:08.717Z,41.23
2018-02-07T17:46:34.696Z,42.07
2018-02-07T17:49:01.381Z,41.90
2018-02-07T17:51:27.347Z,41.43
2018-02-07T17:53:53.367Z,40.10
2018-02-07T17:56:19.325Z,42.30
2018-02-07T17:58:45.298Z,41.90
2018-02-07T18:01:11.979Z,40.27
2018-02-07T18:03:37.965Z,39.67
2018-02-07T18:06:04.008Z,41.17
2018-02-07T18:08:30.756Z,43.53
2018-02-07T18:10:57.440Z,38.77
2018-02-07T18:13:23.420Z,39.50
2018-02-07T18:15:49.413Z,39.43
2018-02-07T18:18:15.384Z,41.27
2018-02-07T18:20:41.317Z,40.27
2018-02-07T18:23:07.317Z,40.73
2018-02-07T18:25:33.271Z,37.77
2018-02-07T18:27:59.285Z,42.37
2018-02-07T18:30:25.291Z,40.90
2018-02-07T18:32:51.243Z,41.10
2018-02-07T18:35:17.938Z,42.67
2018-02-07T18:37:44.121Z,43.00
2018-02-07T18:40:10.092Z,42.50
2018-02-07T18:42:36.100Z,42.53
2018-02-07T18:45:02.816Z,39.67
2018-02-07T18:47:28.756Z,40.47
2018-02-07T18:49:54.735Z,38.30
2018-02-07T18:52:21.445Z,42.40
2018-02-07T18:54:47.409Z,43.27
2018-02-07T18:57:13.340Z,41.77
2018-02-07T18:59:39.385Z,44.00
2018-02-07T19:02:05.344Z,43.47
2018-02-07T19:04:31.280Z,43.80
2018-02-07T19:06:57.256Z,40.43
2018-02-07T19:09:23.197Z,44.43
2018-02-07T19:11:49.173Z,44.60
2018-02-07T19:14:15.857Z,44.73
2018-02-07T19:16:41.833Z,45.57
2018-02-07T19:19:07.781Z,42.50
2018-02-07T19:21:33.711Z,48.00
2018-02-07T19:24:00.453Z,43.90
2018-02-07T19:26:26.537Z,46.23
2018-02-07T19:28:52.529Z,44.67
2018-02-07T19:31:18.500Z,45.00
2018-02-07T19:33:45.192Z,46.77
2018-02-07T19:36:11.132Z,48.87
2018-02-07T19:38:37.113Z,43.23
2018-02-07T19:41:03.830Z,40.77
2018-02-07T19:43:29.809Z,41.60
2018-02-07T19:45:56.532Z,43.77
2018-02-07T19:48:22.492Z,40.57
2018-02-07T19:50:49.168Z,43.47
2018-02-07T19:53:15.152Z,43.63
2018-02-07T19:55:41.144Z,44.63
2018-02-07T19:58:07.113Z,44.23
2018-02-07T20:00:33.083Z,46.67
2018-02-07T20:02:59.769Z,43.83
2018-02-07T20:05:25.745Z,45.97
2018-02-07T20:07:51.684Z,43.03
2018-02-07T20:10:18.405Z,45.77
2018-02-07T20:12:44.376Z,47.40
2018-02-07T20:15:10.325Z,44.90
2018-02-07T20:17:36.300Z,46.13
2018-02-07T20:20:02.278Z,42.67
2018-02-07T20:22:28.251Z,49.57
2018-02-07T20:24:54.188Z,47.47
2018-02-07T20:27:20.158Z,45.37
2018-02-07T20:29:46.096Z,45.10
2018-02-07T20:32:12.064Z,44.43
2018-02-07T20:34:38.135Z,47.20
2018-02-07T20:37:04.134Z,47.67
2018-02-07T20:39:30.081Z,50.10
2018-02-07T20:41:56.755Z,44.47
2018-02-07T20:44:22.728Z,45.03
2018-02-07T20:46:48.669Z,46.37
2018-02-07T20:49:14.609Z,46.87
2018-02-07T20:51:40.570Z,46.10
2018-02-07T20:54:06.563Z,46.60
2018-02-07T20:56:32.514Z,45.83
2018-02-07T20:58:58.493Z,44.87
2018-02-07T21:01:25.209Z,45.80
2018-02-07T21:03:51.182Z,41.67
2018-02-07T21:06:17.864Z,43.60
2018-02-07T21:08:43.841Z,42.93
2018-02-07T21:11:09.840Z,42.27
2018-02-07T21:13:35.791Z,45.67
2018-02-07T21:16:01.797Z,44.13
2018-02-07T21:18:27.760Z,44.30
2018-02-07T21:20:53.697Z,43.43
2018-02-07T21:23:19.673Z,46.23
2018-02-07T21:25:46.348Z,45.97
2018-02-07T21:28:12.324Z,46.10
2018-02-07T21:30:38.300Z,47.03
2018-02-07T21:33:05.043Z,45.93
2018-02-07T21:35:31.803Z,46.37
2018-02-07T21:37:58.512Z,47.27
2018-02-07T21:40:24.449Z,50.47
2018-02-07T21:42:50.424Z,50.00
2018-02-07T21:45:16.361Z,49.27
2018-02-07T21:47:42.372Z,47.27
2018-02-07T21:50:08.335Z,49.47
2018-02-07T21:52:35.093Z,48.27
2018-02-07T21:55:01.817Z,49.60
2018-02-07T21:57:27.791Z,47.57
2018-02-07T21:59:54.505Z,46.77
2018-02-07T22:02:20.454Z,50.50
2018-02-07T22:04:46.429Z,49.73
2018-02-07T22:07:12.372Z,45.83
2018-02-07T22:09:38.374Z,51.27
2018-02-07T22:12:04.382Z,48.07
2018-02-07T22:14:30.360Z,51.40
2018-02-07T22:16:57.044Z,45.27
2018-02-07T22:19:23.020Z,47.70
2018-02-07T22:21:48.980Z,48.67
2018-02-07T22:24:15.669Z,48.10
2018-02-07T22:26:41.662Z,48.47
2018-02-07T22:29:08.362Z,48.43
2018-02-07T22:31:34.380Z,49.13
2018-02-07T22:34:00.326Z,48.70
2018-02-07T22:36:26.263Z,48.40
2018-02-07T22:38:52.244Z,46.87
2018-02-07T22:41:18.237Z,47.30
2018-02-07T22:43:44.207Z,49.37
2018-02-07T22:46:10.144Z,47.40
2018-02-07T22:48:36.137Z,45.57
2018-02-07T22:51:02.077Z,50.17
2018-02-07T22:53:28.053Z,46.50
2018-02-07T22:55:54.037Z,48.30
2018-02-07T22:58:20.031Z,49.47
2018-02-07T23:00:46.001Z,50.17
2018-02-07T23:03:11.953Z,49.23
2018-02-07T23:05:37.929Z,51.70
2018-02-07T23:08:03.903Z,50.27
2018-02-07T23:10:29.876Z,51.37
2018-02-07T23:12:55.849Z,45.77
2018-02-07T23:15:21.820Z,48.33
2018-02-07T23:17:47.764Z,51.03
2018-02-07T23:20:13.781Z,47.67
2018-02-07T23:22:39.724Z,49.50
2018-02-07T23:25:05.714Z,48.10
2018-02-07T23:27:31.670Z,52.30
2018-02-07T23:29:58.384Z,48.80
2018-02-07T23:32:24.349Z,46.77
2018-02-07T23:34:50.321Z,49.43
2018-02-07T23:37:16.324Z,50.67
2018-02-07T23:39:43.013Z,50.97
2018-02-07T23:42:08.958Z,52.83
2018-02-07T23:44:34.937Z,50.90
2018-02-07T23:47:00.885Z,50.77
2018-02-07T23:49:27.620Z,53.33
2018-02-07T23:51:53.605Z,50.70
2018-02-07T23:54:19.575Z,50.07
2018-02-07T23:56:45.536Z,53.50
2018-02-07T23:59:11.525Z,50.10
